sensor_id;sensor_type;location;lat;lon;timestamp;P1;durP1;ratioP1;P2;durP2;ratioP2
4808;SDS011;2418;49.930;8.606;2023-03-23T00:00:46;1.70;;;1.25;;
4808;SDS011;2418;49.930;8.606;2023-03-23T00:03:12;1.90;;;1.40;;
4808;SDS011;2418;49.930;8.606;2023-03-23T00:05:38;3.80;;;1.20;;
4808;SDS011;2418;49.930;8.606;2023-03-23T00:08:06;1.13;;;1.10;;
4808;SDS011;2418;49.930;8.606;2023-03-23T00:10:34;1.20;;;1.20;;
4808;SDS011;2418;49.930;8.606;2023-03-23T00:13:00;1.42;;;1.10;;
4808;SDS011;2418;49.930;8.606;2023-03-23T00:15:28;2.30;;;1.00;;
4808;SDS011;2418;49.930;8.606;2023-03-23T00:17:58;1.10;;;1.10;;
4808;SDS011;2418;49.930;8.606;2023-03-23T00:20:27;4.00;;;1.38;;
4808;SDS011;2418;49.930;8.606;2023-03-23T00:22:54;1.30;;;1.00;;
4808;SDS011;2418;49.930;8.606;2023-03-23T00:25:25;1.40;;;1.30;;
4808;SDS011;2418;49.930;8.606;2023-03-23T00:27:51;2.47;;;1.50;;
4808;SDS011;2418;49.930;8.606;2023-03-23T00:30:17;1.65;;;1.40;;
4808;SDS011;2418;49.930;8.606;2023-03-23T00:32:43;1.80;;;1.38;;
4808;SDS011;2418;49.930;8.606;2023-03-23T00:35:09;1.50;;;1.50;;
4808;SDS011;2418;49.930;8.606;2023-03-23T00:37:35;5.30;;;1.52;;
4808;SDS011;2418;49.930;8.606;2023-03-23T00:40:02;1.52;;;1.42;;
4808;SDS011;2418;49.930;8.606;2023-03-23T00:42:33;1.50;;;1.50;;
4808;SDS011;2418;49.930;8.606;2023-03-23T00:45:02;1.77;;;1.70;;
4808;SDS011;2418;49.930;8.606;2023-03-23T00:47:35;1.70;;;1.60;;
4808;SDS011;2418;49.930;8.606;2023-03-23T00:50:01;6.22;;;1.40;;
4808;SDS011;2418;49.930;8.606;2023-03-23T00:52:27;1.93;;;1.63;;
4808;SDS011;2418;49.930;8.606;2023-03-23T00:54:53;2.10;;;2.00;;
4808;SDS011;2418;49.930;8.606;2023-03-23T00:57:19;5.70;;;1.80;;
4808;SDS011;2418;49.930;8.606;2023-03-23T00:59:48;1.90;;;1.80;;
4808;SDS011;2418;49.930;8.606;2023-03-23T01:02:14;3.40;;;1.65;;
4808;SDS011;2418;49.930;8.606;2023-03-23T01:04:41;2.92;;;1.88;;
4808;SDS011;2418;49.930;8.606;2023-03-23T01:07:11;2.15;;;2.00;;
4808;SDS011;2418;49.930;8.606;2023-03-23T01:09:38;2.25;;;1.55;;
4808;SDS011;2418;49.930;8.606;2023-03-23T01:12:09;1.70;;;1.60;;
4808;SDS011;2418;49.930;8.606;2023-03-23T01:14:35;1.90;;;1.80;;
4808;SDS011;2418;49.930;8.606;2023-03-23T01:17:01;2.30;;;1.50;;
4808;SDS011;2418;49.930;8.606;2023-03-23T01:19:28;1.35;;;1.35;;
4808;SDS011;2418;49.930;8.606;2023-03-23T01:21:54;1.67;;;1.38;;
4808;SDS011;2418;49.930;8.606;2023-03-23T01:24:20;1.35;;;1.30;;
4808;SDS011;2418;49.930;8.606;2023-03-23T01:26:46;1.60;;;1.60;;
4808;SDS011;2418;49.930;8.606;2023-03-23T01:29:12;3.47;;;1.60;;
4808;SDS011;2418;49.930;8.606;2023-03-23T01:31:38;4.00;;;1.38;;
4808;SDS011;2418;49.930;8.606;2023-03-23T01:34:05;2.00;;;1.90;;
4808;SDS011;2418;49.930;8.606;2023-03-23T01:36:31;2.28;;;1.48;;
4808;SDS011;2418;49.930;8.606;2023-03-23T01:38:58;9.00;;;1.80;;
4808;SDS011;2418;49.930;8.606;2023-03-23T01:41:24;2.97;;;1.30;;
4808;SDS011;2418;49.930;8.606;2023-03-23T01:44:01;1.70;;;1.60;;
4808;SDS011;2418;49.930;8.606;2023-03-23T01:46:53;1.63;;;1.52;;
4808;SDS011;2418;49.930;8.606;2023-03-23T01:49:24;1.38;;;1.38;;
4808;SDS011;2418;49.930;8.606;2023-03-23T01:51:52;1.60;;;1.60;;
4808;SDS011;2418;49.930;8.606;2023-03-23T01:54:24;1.80;;;1.70;;
4808;SDS011;2418;49.930;8.606;2023-03-23T01:56:53;1.50;;;1.50;;
4808;SDS011;2418;49.930;8.606;2023-03-23T01:59:21;1.80;;;1.80;;
4808;SDS011;2418;49.930;8.606;2023-03-23T02:01:48;2.30;;;2.00;;
4808;SDS011;2418;49.930;8.606;2023-03-23T02:04:17;2.90;;;1.83;;
4808;SDS011;2418;49.930;8.606;2023-03-23T02:06:43;3.10;;;1.60;;
4808;SDS011;2418;49.930;8.606;2023-03-23T02:09:10;1.73;;;1.67;;
4808;SDS011;2418;49.930;8.606;2023-03-23T02:11:38;2.65;;;1.60;;
4808;SDS011;2418;49.930;8.606;2023-03-23T02:14:05;2.20;;;2.10;;
4808;SDS011;2418;49.930;8.606;2023-03-23T02:26:59;1.98;;;1.90;;
4808;SDS011;2418;49.930;8.606;2023-03-23T02:29:32;1.80;;;1.70;;
4808;SDS011;2418;49.930;8.606;2023-03-23T02:34:56;1.80;;;1.50;;
4808;SDS011;2418;49.930;8.606;2023-03-23T02:37:24;1.38;;;1.38;;
4808;SDS011;2418;49.930;8.606;2023-03-23T02:39:55;1.83;;;1.35;;
4808;SDS011;2418;49.930;8.606;2023-03-23T02:42:23;1.60;;;1.50;;
4808;SDS011;2418;49.930;8.606;2023-03-23T02:44:51;2.00;;;1.50;;
4808;SDS011;2418;49.930;8.606;2023-03-23T02:47:19;2.70;;;1.42;;
4808;SDS011;2418;49.930;8.606;2023-03-23T02:49:46;1.60;;;1.60;;
4808;SDS011;2418;49.930;8.606;2023-03-23T02:52:17;1.80;;;1.70;;
4808;SDS011;2418;49.930;8.606;2023-03-23T02:54:44;1.90;;;1.80;;
4808;SDS011;2418;49.930;8.606;2023-03-23T02:57:13;1.30;;;1.20;;
4808;SDS011;2418;49.930;8.606;2023-03-23T02:59:39;1.60;;;1.50;;
4808;SDS011;2418;49.930;8.606;2023-03-23T03:02:07;2.00;;;1.50;;
4808;SDS011;2418;49.930;8.606;2023-03-23T03:04:33;2.50;;;2.03;;
4808;SDS011;2418;49.930;8.606;2023-03-23T03:09:46;1.60;;;1.50;;
4808;SDS011;2418;49.930;8.606;2023-03-23T03:12:23;1.63;;;1.42;;
4808;SDS011;2418;49.930;8.606;2023-03-23T03:15:13;1.85;;;1.75;;
4808;SDS011;2418;49.930;8.606;2023-03-23T03:17:41;2.20;;;2.00;;
4808;SDS011;2418;49.930;8.606;2023-03-23T03:20:13;1.60;;;1.60;;
4808;SDS011;2418;49.930;8.606;2023-03-23T03:22:41;1.80;;;1.70;;
4808;SDS011;2418;49.930;8.606;2023-03-23T03:25:09;1.70;;;1.60;;
4808;SDS011;2418;49.930;8.606;2023-03-23T03:27:37;1.83;;;1.55;;
4808;SDS011;2418;49.930;8.606;2023-03-23T03:30:06;2.20;;;1.50;;
4808;SDS011;2418;49.930;8.606;2023-03-23T03:32:36;3.53;;;2.08;;
4808;SDS011;2418;49.930;8.606;2023-03-23T03:35:04;1.70;;;1.60;;
4808;SDS011;2418;49.930;8.606;2023-03-23T03:37:37;1.88;;;1.30;;
4808;SDS011;2418;49.930;8.606;2023-03-23T03:40:05;2.40;;;1.40;;
4808;SDS011;2418;49.930;8.606;2023-03-23T03:42:36;1.70;;;1.60;;
4808;SDS011;2418;49.930;8.606;2023-03-23T03:45:02;1.70;;;1.60;;
4808;SDS011;2418;49.930;8.606;2023-03-23T03:47:28;1.80;;;1.70;;
4808;SDS011;2418;49.930;8.606;2023-03-23T03:49:54;1.40;;;1.30;;
4808;SDS011;2418;49.930;8.606;2023-03-23T03:52:20;1.50;;;1.50;;
4808;SDS011;2418;49.930;8.606;2023-03-23T03:54:46;1.70;;;1.50;;
4808;SDS011;2418;49.930;8.606;2023-03-23T03:57:12;1.58;;;1.48;;
4808;SDS011;2418;49.930;8.606;2023-03-23T03:59:38;1.50;;;1.40;;
4808;SDS011;2418;49.930;8.606;2023-03-23T04:02:05;1.70;;;1.50;;
4808;SDS011;2418;49.930;8.606;2023-03-23T04:04:31;2.50;;;1.80;;
4808;SDS011;2418;49.930;8.606;2023-03-23T04:06:57;1.88;;;1.67;;
4808;SDS011;2418;49.930;8.606;2023-03-23T04:09:23;1.60;;;1.60;;
4808;SDS011;2418;49.930;8.606;2023-03-23T04:11:51;1.60;;;1.60;;
4808;SDS011;2418;49.930;8.606;2023-03-23T04:14:17;2.30;;;1.50;;
4808;SDS011;2418;49.930;8.606;2023-03-23T04:16:43;1.80;;;1.70;;
4808;SDS011;2418;49.930;8.606;2023-03-23T04:19:09;1.88;;;1.77;;
4808;SDS011;2418;49.930;8.606;2023-03-23T04:21:37;1.63;;;1.63;;
4808;SDS011;2418;49.930;8.606;2023-03-23T04:24:03;2.22;;;1.60;;
4808;SDS011;2418;49.930;8.606;2023-03-23T04:26:29;1.80;;;1.70;;
4808;SDS011;2418;49.930;8.606;2023-03-23T04:28:55;2.00;;;1.90;;
4808;SDS011;2418;49.930;8.606;2023-03-23T04:31:22;1.70;;;1.60;;
4808;SDS011;2418;49.930;8.606;2023-03-23T04:33:52;3.03;;;2.38;;
4808;SDS011;2418;49.930;8.606;2023-03-23T04:36:18;2.40;;;1.70;;
4808;SDS011;2418;49.930;8.606;2023-03-23T04:38:44;2.05;;;1.92;;
4808;SDS011;2418;49.930;8.606;2023-03-23T04:41:10;1.73;;;1.63;;
4808;SDS011;2418;49.930;8.606;2023-03-23T04:43:37;2.08;;;1.60;;
4808;SDS011;2418;49.930;8.606;2023-03-23T04:46:06;1.73;;;1.20;;
4808;SDS011;2418;49.930;8.606;2023-03-23T04:48:35;1.90;;;1.80;;
4808;SDS011;2418;49.930;8.606;2023-03-23T04:51:04;4.00;;;1.50;;
4808;SDS011;2418;49.930;8.606;2023-03-23T04:53:30;1.70;;;1.60;;
4808;SDS011;2418;49.930;8.606;2023-03-23T04:55:56;2.40;;;1.80;;
4808;SDS011;2418;49.930;8.606;2023-03-23T04:58:22;1.80;;;1.80;;
4808;SDS011;2418;49.930;8.606;2023-03-23T05:00:49;1.70;;;1.50;;
4808;SDS011;2418;49.930;8.606;2023-03-23T05:03:16;1.90;;;1.63;;
4808;SDS011;2418;49.930;8.606;2023-03-23T05:05:43;8.10;;;2.45;;
4808;SDS011;2418;49.930;8.606;2023-03-23T05:08:12;1.40;;;1.30;;
4808;SDS011;2418;49.930;8.606;2023-03-23T05:10:37;1.70;;;1.60;;
4808;SDS011;2418;49.930;8.606;2023-03-23T05:13:03;1.40;;;1.30;;
4808;SDS011;2418;49.930;8.606;2023-03-23T05:15:29;1.40;;;1.40;;
4808;SDS011;2418;49.930;8.606;2023-03-23T05:17:55;1.60;;;1.50;;
4808;SDS011;2418;49.930;8.606;2023-03-23T05:20:21;1.40;;;1.30;;
4808;SDS011;2418;49.930;8.606;2023-03-23T05:22:47;2.10;;;1.17;;
4808;SDS011;2418;49.930;8.606;2023-03-23T05:25:14;2.10;;;1.40;;
4808;SDS011;2418;49.930;8.606;2023-03-23T05:27:40;1.30;;;1.20;;
4808;SDS011;2418;49.930;8.606;2023-03-23T05:30:14;1.27;;;1.27;;
4808;SDS011;2418;49.930;8.606;2023-03-23T05:32:43;2.80;;;1.40;;
4808;SDS011;2418;49.930;8.606;2023-03-23T05:35:10;1.23;;;1.23;;
4808;SDS011;2418;49.930;8.606;2023-03-23T05:37:37;3.80;;;1.27;;
4808;SDS011;2418;49.930;8.606;2023-03-23T05:40:03;1.83;;;1.42;;
4808;SDS011;2418;49.930;8.606;2023-03-23T05:42:34;1.70;;;1.30;;
4808;SDS011;2418;49.930;8.606;2023-03-23T05:45:01;1.10;;;1.10;;
4808;SDS011;2418;49.930;8.606;2023-03-23T05:47:27;2.20;;;1.50;;
4808;SDS011;2418;49.930;8.606;2023-03-23T05:49:53;1.40;;;1.40;;
4808;SDS011;2418;49.930;8.606;2023-03-23T05:52:19;1.60;;;1.60;;
4808;SDS011;2418;49.930;8.606;2023-03-23T05:54:45;1.70;;;1.60;;
4808;SDS011;2418;49.930;8.606;2023-03-23T05:57:11;2.65;;;1.30;;
4808;SDS011;2418;49.930;8.606;2023-03-23T05:59:38;2.40;;;1.50;;
4808;SDS011;2418;49.930;8.606;2023-03-23T06:02:04;1.70;;;1.60;;
4808;SDS011;2418;49.930;8.606;2023-03-23T06:04:30;1.35;;;1.30;;
4808;SDS011;2418;49.930;8.606;2023-03-23T06:06:58;1.85;;;1.75;;
4808;SDS011;2418;49.930;8.606;2023-03-23T06:09:24;1.67;;;1.67;;
4808;SDS011;2418;49.930;8.606;2023-03-23T06:11:50;1.30;;;1.30;;
4808;SDS011;2418;49.930;8.606;2023-03-23T06:14:16;1.40;;;1.40;;
4808;SDS011;2418;49.930;8.606;2023-03-23T06:16:42;1.60;;;1.60;;
4808;SDS011;2418;49.930;8.606;2023-03-23T06:19:08;1.60;;;1.50;;
4808;SDS011;2418;49.930;8.606;2023-03-23T06:21:36;1.40;;;1.35;;
4808;SDS011;2418;49.930;8.606;2023-03-23T06:24:02;1.50;;;1.40;;
4808;SDS011;2418;49.930;8.606;2023-03-23T06:26:30;1.70;;;1.60;;
4808;SDS011;2418;49.930;8.606;2023-03-23T06:28:56;1.60;;;1.40;;
4808;SDS011;2418;49.930;8.606;2023-03-23T06:31:23;1.30;;;1.30;;
4808;SDS011;2418;49.930;8.606;2023-03-23T06:33:49;2.67;;;1.13;;
4808;SDS011;2418;49.930;8.606;2023-03-23T06:36:15;1.30;;;1.30;;
4808;SDS011;2418;49.930;8.606;2023-03-23T06:38:41;1.77;;;1.67;;
4808;SDS011;2418;49.930;8.606;2023-03-23T06:41:07;7.40;;;1.50;;
4808;SDS011;2418;49.930;8.606;2023-03-23T06:43:33;1.30;;;1.30;;
4808;SDS011;2418;49.930;8.606;2023-03-23T06:46:02;1.90;;;1.47;;
4808;SDS011;2418;49.930;8.606;2023-03-23T06:48:29;1.80;;;1.70;;
4808;SDS011;2418;49.930;8.606;2023-03-23T06:50:55;4.10;;;1.30;;
4808;SDS011;2418;49.930;8.606;2023-03-23T06:53:21;1.48;;;1.38;;
4808;SDS011;2418;49.930;8.606;2023-03-23T06:55:47;1.70;;;1.60;;
4808;SDS011;2418;49.930;8.606;2023-03-23T06:58:13;1.50;;;1.40;;
4808;SDS011;2418;49.930;8.606;2023-03-23T07:00:39;1.40;;;1.30;;
4808;SDS011;2418;49.930;8.606;2023-03-23T07:03:05;2.30;;;1.30;;
4808;SDS011;2418;49.930;8.606;2023-03-23T07:05:32;1.40;;;1.30;;
4808;SDS011;2418;49.930;8.606;2023-03-23T07:07:59;3.47;;;1.30;;
4808;SDS011;2418;49.930;8.606;2023-03-23T07:10:25;1.60;;;1.60;;
4808;SDS011;2418;49.930;8.606;2023-03-23T07:12:51;2.10;;;1.58;;
4808;SDS011;2418;49.930;8.606;2023-03-23T07:15:17;1.90;;;1.80;;
4808;SDS011;2418;49.930;8.606;2023-03-23T07:17:43;1.67;;;1.57;;
4808;SDS011;2418;49.930;8.606;2023-03-23T07:20:09;1.80;;;1.70;;
4808;SDS011;2418;49.930;8.606;2023-03-23T07:22:35;2.20;;;1.98;;
4808;SDS011;2418;49.930;8.606;2023-03-23T07:25:00;1.50;;;1.50;;
4808;SDS011;2418;49.930;8.606;2023-03-23T07:27:26;1.60;;;1.50;;
4808;SDS011;2418;49.930;8.606;2023-03-23T07:29:52;2.00;;;1.90;;
4808;SDS011;2418;49.930;8.606;2023-03-23T07:32:18;2.90;;;2.80;;
4808;SDS011;2418;49.930;8.606;2023-03-23T07:34:44;2.30;;;2.20;;
4808;SDS011;2418;49.930;8.606;2023-03-23T07:37:10;2.53;;;2.33;;
4808;SDS011;2418;49.930;8.606;2023-03-23T07:39:36;2.45;;;2.25;;
4808;SDS011;2418;49.930;8.606;2023-03-23T07:42:02;3.67;;;2.95;;
4808;SDS011;2418;49.930;8.606;2023-03-23T07:44:28;3.20;;;3.00;;
4808;SDS011;2418;49.930;8.606;2023-03-23T07:46:54;3.25;;;2.95;;
4808;SDS011;2418;49.930;8.606;2023-03-23T07:49:20;3.80;;;3.50;;
4808;SDS011;2418;49.930;8.606;2023-03-23T07:51:46;2.92;;;2.72;;
4808;SDS011;2418;49.930;8.606;2023-03-23T07:54:12;5.47;;;4.03;;
4808;SDS011;2418;49.930;8.606;2023-03-23T07:56:39;2.70;;;2.50;;
4808;SDS011;2418;49.930;8.606;2023-03-23T07:59:06;4.70;;;4.20;;
4808;SDS011;2418;49.930;8.606;2023-03-23T08:01:32;3.20;;;3.05;;
4808;SDS011;2418;49.930;8.606;2023-03-23T08:03:58;1.90;;;1.88;;
4808;SDS011;2418;49.930;8.606;2023-03-23T08:06:25;1.85;;;1.80;;
4808;SDS011;2418;49.930;8.606;2023-03-23T08:08:51;2.40;;;2.20;;
4808;SDS011;2418;49.930;8.606;2023-03-23T08:11:17;2.40;;;2.13;;
4808;SDS011;2418;49.930;8.606;2023-03-23T08:13:44;2.63;;;2.53;;
4808;SDS011;2418;49.930;8.606;2023-03-23T08:16:10;2.63;;;2.53;;
4808;SDS011;2418;49.930;8.606;2023-03-23T08:18:37;2.60;;;2.50;;
4808;SDS011;2418;49.930;8.606;2023-03-23T08:21:04;2.47;;;2.38;;
4808;SDS011;2418;49.930;8.606;2023-03-23T08:23:31;2.90;;;2.80;;
4808;SDS011;2418;49.930;8.606;2023-03-23T08:25:57;3.08;;;2.88;;
4808;SDS011;2418;49.930;8.606;2023-03-23T08:28:23;2.63;;;2.45;;
4808;SDS011;2418;49.930;8.606;2023-03-23T08:30:49;1.50;;;1.50;;
4808;SDS011;2418;49.930;8.606;2023-03-23T08:33:16;2.00;;;1.80;;
4808;SDS011;2418;49.930;8.606;2023-03-23T08:35:42;2.30;;;2.10;;
4808;SDS011;2418;49.930;8.606;2023-03-23T08:38:09;1.57;;;1.47;;
4808;SDS011;2418;49.930;8.606;2023-03-23T08:40:36;1.83;;;1.73;;
4808;SDS011;2418;49.930;8.606;2023-03-23T08:43:02;2.15;;;1.75;;
4808;SDS011;2418;49.930;8.606;2023-03-23T08:45:29;2.03;;;1.83;;
4808;SDS011;2418;49.930;8.606;2023-03-23T08:47:55;2.90;;;1.70;;
4808;SDS011;2418;49.930;8.606;2023-03-23T08:50:22;2.00;;;1.80;;
4808;SDS011;2418;49.930;8.606;2023-03-23T08:52:49;1.38;;;1.38;;
4808;SDS011;2418;49.930;8.606;2023-03-23T08:55:15;4.40;;;1.80;;
4808;SDS011;2418;49.930;8.606;2023-03-23T08:57:42;1.63;;;1.52;;
4808;SDS011;2418;49.930;8.606;2023-03-23T09:00:10;1.98;;;1.50;;
4808;SDS011;2418;49.930;8.606;2023-03-23T09:02:42;1.40;;;1.40;;
4808;SDS011;2418;49.930;8.606;2023-03-23T09:05:10;2.00;;;1.50;;
4808;SDS011;2418;49.930;8.606;2023-03-23T09:07:37;1.50;;;1.30;;
4808;SDS011;2418;49.930;8.606;2023-03-23T09:10:08;1.70;;;1.60;;
4808;SDS011;2418;49.930;8.606;2023-03-23T09:12:34;1.70;;;1.60;;
4808;SDS011;2418;49.930;8.606;2023-03-23T09:15:01;1.30;;;1.30;;
4808;SDS011;2418;49.930;8.606;2023-03-23T09:17:28;1.48;;;1.38;;
4808;SDS011;2418;49.930;8.606;2023-03-23T09:19:53;1.87;;;1.43;;
4808;SDS011;2418;49.930;8.606;2023-03-23T09:22:20;4.00;;;1.80;;
4808;SDS011;2418;49.930;8.606;2023-03-23T09:24:48;2.25;;;1.40;;
4808;SDS011;2418;49.930;8.606;2023-03-23T09:27:15;1.67;;;1.58;;
4808;SDS011;2418;49.930;8.606;2023-03-23T09:29:41;1.30;;;1.30;;
4808;SDS011;2418;49.930;8.606;2023-03-23T09:32:09;1.40;;;1.40;;
4808;SDS011;2418;49.930;8.606;2023-03-23T09:34:35;1.50;;;1.50;;
4808;SDS011;2418;49.930;8.606;2023-03-23T09:37:04;1.75;;;1.65;;
4808;SDS011;2418;49.930;8.606;2023-03-23T09:39:31;1.50;;;1.42;;
4808;SDS011;2418;49.930;8.606;2023-03-23T09:42:00;2.90;;;2.30;;
4808;SDS011;2418;49.930;8.606;2023-03-23T09:44:31;1.50;;;1.50;;
4808;SDS011;2418;49.930;8.606;2023-03-23T09:49:33;2.70;;;1.60;;
4808;SDS011;2418;49.930;8.606;2023-03-23T09:52:05;1.50;;;1.40;;
4808;SDS011;2418;49.930;8.606;2023-03-23T09:54:36;3.15;;;1.63;;
4808;SDS011;2418;49.930;8.606;2023-03-23T09:57:07;1.80;;;1.70;;
4808;SDS011;2418;49.930;8.606;2023-03-23T09:59:41;1.20;;;1.20;;
4808;SDS011;2418;49.930;8.606;2023-03-23T10:04:44;1.27;;;1.20;;
4808;SDS011;2418;49.930;8.606;2023-03-23T10:07:13;2.28;;;1.35;;
4808;SDS011;2418;49.930;8.606;2023-03-23T10:09:39;1.50;;;1.40;;
4808;SDS011;2418;49.930;8.606;2023-03-23T10:12:10;1.80;;;1.80;;
4808;SDS011;2418;49.930;8.606;2023-03-23T10:14:43;1.80;;;1.20;;
4808;SDS011;2418;49.930;8.606;2023-03-23T10:17:21;1.20;;;1.20;;
4808;SDS011;2418;49.930;8.606;2023-03-23T10:19:51;4.70;;;1.30;;
4808;SDS011;2418;49.930;8.606;2023-03-23T10:22:21;1.33;;;1.33;;
4808;SDS011;2418;49.930;8.606;2023-03-23T10:24:51;1.00;;;1.00;;
4808;SDS011;2418;49.930;8.606;2023-03-23T10:27:24;1.40;;;1.20;;
4808;SDS011;2418;49.930;8.606;2023-03-23T10:30:05;1.30;;;1.27;;
4808;SDS011;2418;49.930;8.606;2023-03-23T10:35:10;2.80;;;1.20;;
4808;SDS011;2418;49.930;8.606;2023-03-23T10:37:43;1.20;;;1.20;;
4808;SDS011;2418;49.930;8.606;2023-03-23T10:40:15;1.30;;;1.30;;
4808;SDS011;2418;49.930;8.606;2023-03-23T10:42:41;1.10;;;1.10;;
4808;SDS011;2418;49.930;8.606;2023-03-23T10:45:18;2.17;;;1.13;;
4808;SDS011;2418;49.930;8.606;2023-03-23T10:51:00;1.10;;;1.10;;
4808;SDS011;2418;49.930;8.606;2023-03-23T10:53:36;1.15;;;1.10;;
4808;SDS011;2418;49.930;8.606;2023-03-23T10:56:29;0.90;;;0.90;;
4808;SDS011;2418;49.930;8.606;2023-03-23T10:59:10;1.52;;;1.08;;
4808;SDS011;2418;49.930;8.606;2023-03-23T11:01:36;2.70;;;1.10;;
4808;SDS011;2418;49.930;8.606;2023-03-23T11:04:02;1.20;;;1.20;;
4808;SDS011;2418;49.930;8.606;2023-03-23T11:06:29;1.20;;;1.10;;
4808;SDS011;2418;49.930;8.606;2023-03-23T11:09:00;1.40;;;0.85;;
4808;SDS011;2418;49.930;8.606;2023-03-23T11:11:36;1.02;;;1.00;;
4808;SDS011;2418;49.930;8.606;2023-03-23T11:16:42;1.10;;;1.10;;
4808;SDS011;2418;49.930;8.606;2023-03-23T11:19:13;2.92;;;1.10;;
4808;SDS011;2418;49.930;8.606;2023-03-23T11:21:40;2.90;;;1.27;;
4808;SDS011;2418;49.930;8.606;2023-03-23T11:24:07;0.90;;;0.90;;
4808;SDS011;2418;49.930;8.606;2023-03-23T11:26:34;0.90;;;0.90;;
4808;SDS011;2418;49.930;8.606;2023-03-23T11:29:18;0.80;;;0.80;;
4808;SDS011;2418;49.930;8.606;2023-03-23T11:31:48;1.48;;;1.00;;
4808;SDS011;2418;49.930;8.606;2023-03-23T11:34:20;1.20;;;1.10;;
4808;SDS011;2418;49.930;8.606;2023-03-23T11:36:51;1.20;;;1.20;;
4808;SDS011;2418;49.930;8.606;2023-03-23T11:39:26;0.90;;;0.90;;
4808;SDS011;2418;49.930;8.606;2023-03-23T11:41:53;4.50;;;1.10;;
4808;SDS011;2418;49.930;8.606;2023-03-23T11:44:21;0.83;;;0.83;;
4808;SDS011;2418;49.930;8.606;2023-03-23T11:46:54;1.30;;;1.20;;
4808;SDS011;2418;49.930;8.606;2023-03-23T11:52:13;1.90;;;1.10;;
4808;SDS011;2418;49.930;8.606;2023-03-23T11:54:43;1.25;;;1.25;;
4808;SDS011;2418;49.930;8.606;2023-03-23T11:57:17;1.30;;;1.20;;
4808;SDS011;2418;49.930;8.606;2023-03-23T11:59:43;1.50;;;0.90;;
4808;SDS011;2418;49.930;8.606;2023-03-23T12:04:57;1.17;;;1.17;;
4808;SDS011;2418;49.930;8.606;2023-03-23T12:10:15;1.00;;;1.00;;
4808;SDS011;2418;49.930;8.606;2023-03-23T12:17:51;1.70;;;1.00;;
4808;SDS011;2418;49.930;8.606;2023-03-23T12:22:50;1.08;;;1.08;;
4808;SDS011;2418;49.930;8.606;2023-03-23T12:27:55;0.80;;;0.80;;
4808;SDS011;2418;49.930;8.606;2023-03-23T12:30:38;0.88;;;0.88;;
4808;SDS011;2418;49.930;8.606;2023-03-23T12:48:40;3.30;;;0.88;;
4808;SDS011;2418;49.930;8.606;2023-03-23T12:56:19;0.80;;;0.80;;
4808;SDS011;2418;49.930;8.606;2023-03-23T12:58:48;1.17;;;1.17;;
4808;SDS011;2418;49.930;8.606;2023-03-23T13:01:18;1.00;;;0.90;;
4808;SDS011;2418;49.930;8.606;2023-03-23T13:11:42;0.77;;;0.77;;
4808;SDS011;2418;49.930;8.606;2023-03-23T13:16:42;1.20;;;1.20;;
4808;SDS011;2418;49.930;8.606;2023-03-23T13:19:19;1.70;;;0.80;;
4808;SDS011;2418;49.930;8.606;2023-03-23T13:24:32;0.80;;;0.80;;
4808;SDS011;2418;49.930;8.606;2023-03-23T13:26:59;0.90;;;0.90;;
4808;SDS011;2418;49.930;8.606;2023-03-23T13:29:26;1.67;;;1.00;;
4808;SDS011;2418;49.930;8.606;2023-03-23T13:32:04;1.10;;;0.80;;
4808;SDS011;2418;49.930;8.606;2023-03-23T13:34:30;1.57;;;0.80;;
4808;SDS011;2418;49.930;8.606;2023-03-23T13:39:31;0.93;;;0.90;;
4808;SDS011;2418;49.930;8.606;2023-03-23T13:44:38;0.70;;;0.70;;
4808;SDS011;2418;49.930;8.606;2023-03-23T13:47:47;0.80;;;0.80;;
4808;SDS011;2418;49.930;8.606;2023-03-23T13:50:01;0.80;;;0.80;;
4808;SDS011;2418;49.930;8.606;2023-03-23T14:02:58;0.70;;;0.70;;
4808;SDS011;2418;49.930;8.606;2023-03-23T14:05:35;0.80;;;0.80;;
4808;SDS011;2418;49.930;8.606;2023-03-23T14:08:03;2.20;;;0.70;;
4808;SDS011;2418;49.930;8.606;2023-03-23T14:13:05;0.80;;;0.80;;
4808;SDS011;2418;49.930;8.606;2023-03-23T14:15:41;0.90;;;0.90;;
4808;SDS011;2418;49.930;8.606;2023-03-23T14:18:11;1.10;;;1.00;;
4808;SDS011;2418;49.930;8.606;2023-03-23T14:20:38;1.20;;;1.20;;
4808;SDS011;2418;49.930;8.606;2023-03-23T14:23:05;0.80;;;0.80;;
4808;SDS011;2418;49.930;8.606;2023-03-23T14:25:31;2.10;;;0.73;;
4808;SDS011;2418;49.930;8.606;2023-03-23T14:27:57;0.60;;;0.60;;
4808;SDS011;2418;49.930;8.606;2023-03-23T14:30:25;0.63;;;0.63;;
4808;SDS011;2418;49.930;8.606;2023-03-23T14:32:52;0.70;;;0.70;;
4808;SDS011;2418;49.930;8.606;2023-03-23T14:35:36;0.60;;;0.60;;
4808;SDS011;2418;49.930;8.606;2023-03-23T14:38:03;0.70;;;0.70;;
4808;SDS011;2418;49.930;8.606;2023-03-23T14:40:30;2.20;;;0.60;;
4808;SDS011;2418;49.930;8.606;2023-03-23T14:42:56;1.30;;;0.60;;
4808;SDS011;2418;49.930;8.606;2023-03-23T14:45:23;0.90;;;0.90;;
4808;SDS011;2418;49.930;8.606;2023-03-23T14:48:00;0.90;;;0.90;;
4808;SDS011;2418;49.930;8.606;2023-03-23T14:50:36;1.50;;;0.60;;
4808;SDS011;2418;49.930;8.606;2023-03-23T14:53:07;0.70;;;0.70;;
4808;SDS011;2418;49.930;8.606;2023-03-23T14:55:35;0.80;;;0.80;;
4808;SDS011;2418;49.930;8.606;2023-03-23T14:58:07;0.80;;;0.80;;
4808;SDS011;2418;49.930;8.606;2023-03-23T15:00:45;2.13;;;0.73;;
4808;SDS011;2418;49.930;8.606;2023-03-23T15:03:15;0.80;;;0.80;;
4808;SDS011;2418;49.930;8.606;2023-03-23T15:05:43;0.80;;;0.80;;
4808;SDS011;2418;49.930;8.606;2023-03-23T15:13:30;1.90;;;1.00;;
4808;SDS011;2418;49.930;8.606;2023-03-23T15:16:04;0.98;;;0.90;;
4808;SDS011;2418;49.930;8.606;2023-03-23T15:18:35;1.35;;;1.05;;
4808;SDS011;2418;49.930;8.606;2023-03-23T15:21:18;2.70;;;0.77;;
4808;SDS011;2418;49.930;8.606;2023-03-23T15:23:45;1.70;;;1.00;;
4808;SDS011;2418;49.930;8.606;2023-03-23T15:26:20;0.93;;;0.93;;
4808;SDS011;2418;49.930;8.606;2023-03-23T15:28:47;1.13;;;1.13;;
4808;SDS011;2418;49.930;8.606;2023-03-23T15:31:13;0.95;;;0.93;;
4808;SDS011;2418;49.930;8.606;2023-03-23T15:33:40;0.80;;;0.80;;
4808;SDS011;2418;49.930;8.606;2023-03-23T15:36:07;0.90;;;0.90;;
4808;SDS011;2418;49.930;8.606;2023-03-23T15:38:34;0.80;;;0.80;;
4808;SDS011;2418;49.930;8.606;2023-03-23T15:41:18;1.40;;;0.83;;
4808;SDS011;2418;49.930;8.606;2023-03-23T15:43:50;0.80;;;0.80;;
4808;SDS011;2418;49.930;8.606;2023-03-23T15:48:48;0.90;;;0.90;;
4808;SDS011;2418;49.930;8.606;2023-03-23T15:51:15;0.80;;;0.80;;
4808;SDS011;2418;49.930;8.606;2023-03-23T15:53:41;3.10;;;1.00;;
4808;SDS011;2418;49.930;8.606;2023-03-23T15:56:09;1.70;;;1.00;;
4808;SDS011;2418;49.930;8.606;2023-03-23T15:58:35;2.20;;;1.10;;
4808;SDS011;2418;49.930;8.606;2023-03-23T16:01:04;0.90;;;0.90;;
4808;SDS011;2418;49.930;8.606;2023-03-23T16:03:42;1.33;;;1.23;;
4808;SDS011;2418;49.930;8.606;2023-03-23T16:06:10;1.40;;;0.90;;
4808;SDS011;2418;49.930;8.606;2023-03-23T16:08:36;0.90;;;0.90;;
4808;SDS011;2418;49.930;8.606;2023-03-23T16:11:05;1.70;;;0.90;;
4808;SDS011;2418;49.930;8.606;2023-03-23T16:13:31;1.08;;;1.08;;
4808;SDS011;2418;49.930;8.606;2023-03-23T16:15:57;2.22;;;0.80;;
4808;SDS011;2418;49.930;8.606;2023-03-23T16:18:23;1.02;;;0.93;;
4808;SDS011;2418;49.930;8.606;2023-03-23T16:20:49;2.20;;;1.08;;
4808;SDS011;2418;49.930;8.606;2023-03-23T16:23:15;1.00;;;1.00;;
4808;SDS011;2418;49.930;8.606;2023-03-23T16:25:41;1.20;;;1.10;;
4808;SDS011;2418;49.930;8.606;2023-03-23T16:28:11;2.40;;;1.30;;
4808;SDS011;2418;49.930;8.606;2023-03-23T16:30:37;2.03;;;1.38;;
4808;SDS011;2418;49.930;8.606;2023-03-23T16:33:04;1.80;;;1.43;;
4808;SDS011;2418;49.930;8.606;2023-03-23T16:35:30;1.10;;;1.10;;
4808;SDS011;2418;49.930;8.606;2023-03-23T16:37:56;1.90;;;1.30;;
4808;SDS011;2418;49.930;8.606;2023-03-23T16:40:22;1.00;;;1.00;;
4808;SDS011;2418;49.930;8.606;2023-03-23T16:42:48;0.98;;;0.98;;
4808;SDS011;2418;49.930;8.606;2023-03-23T16:45:14;1.40;;;1.40;;
4808;SDS011;2418;49.930;8.606;2023-03-23T16:47:40;1.70;;;1.33;;
4808;SDS011;2418;49.930;8.606;2023-03-23T16:50:08;1.40;;;1.23;;
4808;SDS011;2418;49.930;8.606;2023-03-23T16:52:36;1.30;;;0.93;;
4808;SDS011;2418;49.930;8.606;2023-03-23T16:55:02;1.80;;;1.10;;
4808;SDS011;2418;49.930;8.606;2023-03-23T16:57:28;2.30;;;1.10;;
4808;SDS011;2418;49.930;8.606;2023-03-23T16:59:55;1.60;;;1.20;;
4808;SDS011;2418;49.930;8.606;2023-03-23T17:02:22;1.30;;;1.20;;
4808;SDS011;2418;49.930;8.606;2023-03-23T17:04:48;1.50;;;1.00;;
4808;SDS011;2418;49.930;8.606;2023-03-23T17:07:14;1.00;;;1.00;;
4808;SDS011;2418;49.930;8.606;2023-03-23T17:09:40;2.03;;;1.40;;